Queen Of Burnaby — VCVV — position and weather

sailwx.info

Track history (hours):
 
Tides and Currents Weather Stations Pressure Air Temp Water Temp Dewpoint Dewpoint Depression Visibility Wind Speed Wind Dir Waves Ship Positions

Queen Of Burnaby

Last reported at 2014-Aug-20 14:27 UTC. Time now 2014-Aug-20 20:34 UTC.
Position N 49°49' W 124°38'.

Length 130 m; draft 4 m.

MMSI: 316001246.

Date/timePositionNaut miles runAvg speedWind from/ knotsBaromVisibWave heightAir tempDewpointWater temp
2014-Aug-20 14:27N 49°49' W 124°38'2 0.1
2014-Aug-19 18:19N 49°50' W 124°35'2 0.5
2014-Aug-19 14:31N 49°49' W 124°37'1 0.1
2014-Aug-19 03:06N 49°49' W 124°38'0 0.0
2014-Aug-18 18:03N 49°49' W 124°38'815.2
2014-Aug-18 17:33N 49°46' W 124°49'8 2.7
2014-Aug-18 14:29N 49°49' W 124°37'1 0.1
2014-Aug-18 03:05N 49°49' W 124°39'1 0.1
2014-Aug-17 18:07N 49°49' W 124°37'814.4
2014-Aug-17 17:33N 49°46' W 124°49'9 2.9
2014-Aug-17 14:31N 49°49' W 124°36'3 0.3
2014-Aug-17 03:18N 49°50' W 124°32'8 9.9
2014-Aug-17 02:30N 49°47' W 124°43'5 0.6
2014-Aug-16 18:14N 49°50' W 124°36'1014.8
2014-Aug-16 17:32N 49°46' W 124°51'11 3.5
2014-Aug-16 14:32N 49°50' W 124°36'2 0.2
2014-Aug-16 03:29N 49°50' W 124°32'1313.4
2014-Aug-16 02:33N 49°46' W 124°50'10 3.1
2014-Aug-15 23:26N 49°49' W 124°36'3 0.6
2014-Aug-15 18:31N 49°50' W 124°32'1313.7
2014-Aug-15 17:33N 49°46' W 124°51'13 5.4
2014-Aug-15 15:08N 49°50' W 124°32'2 3.6
2014-Aug-15 14:33N 49°50' W 124°35'2 0.2
2014-Aug-15 03:09N 49°49' W 124°37'8 0.9
2014-Aug-14 17:33N 49°46' W 124°49'8 2.5
2014-Aug-14 14:27N 49°49' W 124°38'9 0.7
2014-Aug-14 02:33N 49°46' W 124°51'1 0.9
2014-Aug-14 01:05N 49°46' W 124°49'12 7.5
2014-Aug-13 23:32N 49°50' W 124°32'1414.1
2014-Aug-13 22:32N 49°45' W 124°53'14 4.2
2014-Aug-13 19:09N 49°50' W 124°32'1 1.8
2014-Aug-13 18:21N 49°50' W 124°34'1314.5
2014-Aug-13 17:27N 49°46' W 124°53'11 3.9
2014-Aug-13 14:32N 49°50' W 124°37'1 0.1
2014-Aug-13 03:08N 49°49' W 124°37'915.0
2014-Aug-13 02:33N 49°46' W 124°50'12 3.8
2014-Aug-12 23:25N 49°50' W 124°33'1213.8
2014-Aug-12 22:33N 49°46' W 124°50'9 2.0
2014-Aug-12 18:03N 49°49' W 124°37'815.5
2014-Aug-12 17:32N 49°47' W 124°49'7 2.3
2014-Aug-12 14:22N 49°49' W 124°38'4 0.3
2014-Aug-12 03:24N 49°50' W 124°33'3 0.7
2014-Aug-11 23:18N 49°49' W 124°37'2 0.4
2014-Aug-11 18:03N 49°48' W 124°40'814.4
2014-Aug-11 17:30N 49°45' W 124°52'11 3.4
2014-Aug-11 14:26N 49°49' W 124°37'0 0.0
2014-Aug-11 03:09N 49°49' W 124°37'0 0.0
2014-Aug-10 18:09N 49°49' W 124°37'1014.9
2014-Aug-10 17:29N 49°45' W 124°52'10 3.5
2014-Aug-10 14:29N 49°49' W 124°37'  
Track history (hours):
 
Tides and Currents Weather Stations Pressure Air Temp Water Temp Dewpoint Dewpoint Depression Visibility Wind Speed Wind Dir Waves Ship Positions

Queen Of Burnaby

Last reported at 2014-Aug-20 14:27 UTC. Time now 2014-Aug-20 20:34 UTC.
Position N 49°49' W 124°38'.

Length 130 m; draft 4 m.

MMSI: 316001246.

Date/timePositionNaut miles runAvg speedWind from/ knotsBaromVisibWave heightAir tempDewpointWater temp
2014-Aug-20 14:27N 49°49' W 124°38'2 0.1
2014-Aug-19 18:19N 49°50' W 124°35'2 0.5
2014-Aug-19 14:31N 49°49' W 124°37'1 0.1
2014-Aug-19 03:06N 49°49' W 124°38'0 0.0
2014-Aug-18 18:03N 49°49' W 124°38'815.2
2014-Aug-18 17:33N 49°46' W 124°49'8 2.7
2014-Aug-18 14:29N 49°49' W 124°37'1 0.1
2014-Aug-18 03:05N 49°49' W 124°39'1 0.1
2014-Aug-17 18:07N 49°49' W 124°37'814.4
2014-Aug-17 17:33N 49°46' W 124°49'9 2.9
2014-Aug-17 14:31N 49°49' W 124°36'3 0.3
2014-Aug-17 03:18N 49°50' W 124°32'8 9.9
2014-Aug-17 02:30N 49°47' W 124°43'5 0.6
2014-Aug-16 18:14N 49°50' W 124°36'1014.8
2014-Aug-16 17:32N 49°46' W 124°51'11 3.5
2014-Aug-16 14:32N 49°50' W 124°36'2 0.2
2014-Aug-16 03:29N 49°50' W 124°32'1313.4
2014-Aug-16 02:33N 49°46' W 124°50'10 3.1
2014-Aug-15 23:26N 49°49' W 124°36'3 0.6
2014-Aug-15 18:31N 49°50' W 124°32'1313.7
2014-Aug-15 17:33N 49°46' W 124°51'13 5.4
2014-Aug-15 15:08N 49°50' W 124°32'2 3.6
2014-Aug-15 14:33N 49°50' W 124°35'2 0.2
2014-Aug-15 03:09N 49°49' W 124°37'8 0.9
2014-Aug-14 17:33N 49°46' W 124°49'8 2.5
2014-Aug-14 14:27N 49°49' W 124°38'9 0.7
2014-Aug-14 02:33N 49°46' W 124°51'1 0.9
2014-Aug-14 01:05N 49°46' W 124°49'12 7.5
2014-Aug-13 23:32N 49°50' W 124°32'1414.1
2014-Aug-13 22:32N 49°45' W 124°53'14 4.2
2014-Aug-13 19:09N 49°50' W 124°32'1 1.8
2014-Aug-13 18:21N 49°50' W 124°34'1314.5
2014-Aug-13 17:27N 49°46' W 124°53'11 3.9
2014-Aug-13 14:32N 49°50' W 124°37'1 0.1
2014-Aug-13 03:08N 49°49' W 124°37'915.0
2014-Aug-13 02:33N 49°46' W 124°50'12 3.8
2014-Aug-12 23:25N 49°50' W 124°33'1213.8
2014-Aug-12 22:33N 49°46' W 124°50'9 2.0
2014-Aug-12 18:03N 49°49' W 124°37'815.5
2014-Aug-12 17:32N 49°47' W 124°49'7 2.3
2014-Aug-12 14:22N 49°49' W 124°38'4 0.3
2014-Aug-12 03:24N 49°50' W 124°33'3 0.7
2014-Aug-11 23:18N 49°49' W 124°37'2 0.4
2014-Aug-11 18:03N 49°48' W 124°40'814.4
2014-Aug-11 17:30N 49°45' W 124°52'11 3.4
2014-Aug-11 14:26N 49°49' W 124°37'0 0.0
2014-Aug-11 03:09N 49°49' W 124°37'0 0.0
2014-Aug-10 18:09N 49°49' W 124°37'1014.9
2014-Aug-10 17:29N 49°45' W 124°52'10 3.5
2014-Aug-10 14:29N 49°49' W 124°37'  

Dump ship's entire track history